createdAt,value
2022-08-26T00:01:18.289Z,100626.56
2022-08-26T00:03:51.099Z,100639.78
2022-08-26T00:06:20.899Z,100628.56
2022-08-26T00:08:47.661Z,100641.91
2022-08-26T00:11:15.251Z,100644.16
2022-08-26T00:13:53.054Z,100638.66
2022-08-26T00:16:19.994Z,100638.22
2022-08-26T00:18:46.506Z,100650.72
2022-08-26T00:21:12.981Z,100638.72
2022-08-26T00:23:40.263Z,100634.53
2022-08-26T00:26:06.904Z,100637.56
2022-08-26T00:28:35.961Z,100645.69
2022-08-26T00:31:02.520Z,100641.19
2022-08-26T00:33:29.946Z,100642.97
2022-08-26T00:35:56.896Z,100637.75
2022-08-26T00:38:24.763Z,100643.53
2022-08-26T00:40:55.995Z,100634.97
2022-08-26T00:43:24.161Z,100640.25
2022-08-26T00:46:05.054Z,100640.41
2022-08-26T00:48:34.509Z,100639.94
2022-08-26T00:51:11.652Z,100638.09
2022-08-26T00:53:45.648Z,100636.25
2022-08-26T00:56:31.933Z,100633.63
2022-08-26T00:59:05.126Z,100631.63
2022-08-26T01:01:32.216Z,100628.88
2022-08-26T01:04:00.897Z,100626.22
2022-08-26T01:06:28.522Z,100626.69
2022-08-26T01:08:56.086Z,100631.34
2022-08-26T01:11:24.141Z,100621.38
2022-08-26T01:14:00.095Z,100624.50
2022-08-26T01:16:26.861Z,100634.28
2022-08-26T01:18:59.491Z,100641.72
2022-08-26T01:21:31.090Z,100637.03
2022-08-26T01:23:59.435Z,100631.06
2022-08-26T01:26:35.673Z,100643.16
2022-08-26T01:29:05.246Z,100632.41
2022-08-26T01:31:39.023Z,100632.19
2022-08-26T01:34:20.329Z,100633.13
2022-08-26T01:36:51.410Z,100635.31
2022-08-26T01:39:18.887Z,100631.59
2022-08-26T01:41:46.292Z,100623.69
2022-08-26T01:44:18.554Z,100620.16
2022-08-26T01:46:48.807Z,100631.63
2022-08-26T01:49:18.017Z,100627.97
2022-08-26T01:51:48.029Z,100631.34
2022-08-26T01:54:15.913Z,100633.00
2022-08-26T01:56:42.803Z,100629.81
2022-08-26T01:59:15.166Z,100621.78
2022-08-26T02:01:44.033Z,100621.94
2022-08-26T02:04:23.359Z,100631.41
2022-08-26T02:06:51.710Z,100616.09
2022-08-26T02:09:19.767Z,100632.44
2022-08-26T02:11:47.868Z,100631.53
2022-08-26T02:14:20.952Z,100631.69
2022-08-26T02:16:50.439Z,100629.91
2022-08-26T02:19:21.445Z,100626.22
2022-08-26T02:21:52.060Z,100635.22
2022-08-26T02:24:30.261Z,100630.66
2022-08-26T02:26:58.086Z,100632.28
2022-08-26T02:29:29.095Z,100627.91
2022-08-26T02:31:55.791Z,100633.72
2022-08-26T02:34:31.306Z,100639.19
2022-08-26T02:37:01.060Z,100636.47
2022-08-26T02:39:29.629Z,100630.59
2022-08-26T02:41:57.513Z,100634.25
2022-08-26T02:44:24.001Z,100631.50
2022-08-26T02:46:52.828Z,100629.50
2022-08-26T02:49:21.834Z,100635.19
2022-08-26T02:51:49.458Z,100633.91
2022-08-26T02:54:18.132Z,100639.91
2022-08-26T02:56:45.302Z,100630.97
2022-08-26T02:59:15.386Z,100637.59
2022-08-26T03:01:42.550Z,100637.97
2022-08-26T03:04:11.109Z,100631.06
2022-08-26T03:06:39.308Z,100631.66
2022-08-26T03:09:09.083Z,100623.47
2022-08-26T03:11:36.700Z,100627.22
2022-08-26T03:14:03.957Z,100622.13
2022-08-26T03:16:36.116Z,100628.13
2022-08-26T03:19:06.063Z,100617.59
2022-08-26T03:21:33.232Z,100618.47
2022-08-26T03:24:00.505Z,100623.66
2022-08-26T03:26:28.399Z,100620.78
2022-08-26T03:29:14.680Z,100619.97
2022-08-26T03:31:41.979Z,100612.00
2022-08-26T03:34:09.675Z,100610.09
2022-08-26T03:36:38.623Z,100606.84
2022-08-26T03:39:06.442Z,100617.22
2022-08-26T03:41:36.751Z,100604.88
2022-08-26T03:44:05.718Z,100610.19
2022-08-26T03:46:33.671Z,100618.25
2022-08-26T03:49:02.071Z,100617.63
2022-08-26T03:51:29.069Z,100607.97
2022-08-26T03:53:56.016Z,100616.72
2022-08-26T03:56:23.746Z,100609.75
2022-08-26T03:58:50.509Z,100604.81
2022-08-26T04:01:17.594Z,100612.41
2022-08-26T04:03:58.224Z,100623.81
2022-08-26T04:06:36.400Z,100622.78
2022-08-26T04:09:06.818Z,100614.13
2022-08-26T04:11:35.906Z,100612.06
2022-08-26T04:14:26.130Z,100613.59
2022-08-26T04:16:55.243Z,100606.66
2022-08-26T04:19:23.178Z,100611.66
2022-08-26T04:21:52.768Z,100612.16
2022-08-26T04:24:22.096Z,100614.81
2022-08-26T04:26:48.810Z,100614.31
2022-08-26T04:29:19.078Z,100616.03
2022-08-26T04:31:48.066Z,100624.09
2022-08-26T04:34:15.274Z,100623.34
2022-08-26T04:36:43.083Z,100626.28
2022-08-26T04:39:16.856Z,100604.41
2022-08-26T04:41:45.281Z,100610.75
2022-08-26T04:44:11.856Z,100622.41
2022-08-26T04:46:39.835Z,100622.53
2022-08-26T04:49:11.096Z,100631.19
2022-08-26T04:51:38.322Z,100632.44
2022-08-26T04:54:07.132Z,100630.75
2022-08-26T04:56:40.042Z,100626.22
2022-08-26T04:59:16.530Z,100639.00
2022-08-26T05:01:48.854Z,100629.84
2022-08-26T05:04:19.035Z,100631.50
2022-08-26T05:06:46.579Z,100622.56
2022-08-26T05:09:15.300Z,100637.75
2022-08-26T05:11:42.294Z,100615.13
2022-08-26T05:14:08.873Z,100637.19
2022-08-26T05:16:35.479Z,100634.59
2022-08-26T05:19:03.513Z,100637.03
2022-08-26T05:21:30.031Z,100627.22
2022-08-26T05:23:57.096Z,100631.66
2022-08-26T05:26:29.567Z,100638.38
2022-08-26T05:28:57.244Z,100636.34
2022-08-26T05:31:27.280Z,100642.91
2022-08-26T05:33:54.913Z,100643.97
2022-08-26T05:36:23.258Z,100641.84
2022-08-26T05:38:53.794Z,100644.59
2022-08-26T05:41:34.520Z,100645.22
2022-08-26T05:44:06.907Z,100648.06
2022-08-26T05:46:34.608Z,100645.53
2022-08-26T05:49:02.492Z,100659.44
2022-08-26T05:51:30.429Z,100660.03
2022-08-26T05:53:58.402Z,100662.34
2022-08-26T05:56:27.421Z,100650.66
2022-08-26T05:58:55.563Z,100652.69
2022-08-26T06:01:28.165Z,100662.84
2022-08-26T06:03:57.537Z,100664.28
2022-08-26T06:06:29.279Z,100656.63
2022-08-26T06:08:57.907Z,100660.00
2022-08-26T06:11:26.056Z,100650.47
2022-08-26T06:13:54.702Z,100654.88
2022-08-26T06:16:23.592Z,100656.53
2022-08-26T06:18:51.867Z,100660.22
2022-08-26T06:21:22.392Z,100659.66
2022-08-26T06:24:09.221Z,100655.44
2022-08-26T06:26:36.573Z,100653.09
2022-08-26T06:29:04.726Z,100669.53
2022-08-26T06:31:33.766Z,100671.22
2022-08-26T06:34:01.349Z,100669.31
2022-08-26T06:36:30.466Z,100680.69
2022-08-26T06:39:01.337Z,100675.84
2022-08-26T06:41:27.920Z,100679.91
2022-08-26T06:43:54.390Z,100683.38
2022-08-26T06:46:22.002Z,100678.78
2022-08-26T06:48:49.099Z,100690.56
2022-08-26T06:51:22.364Z,100695.56
2022-08-26T06:53:52.379Z,100690.09
2022-08-26T06:56:22.845Z,100691.59
2022-08-26T06:58:51.292Z,100693.47
2022-08-26T07:01:29.329Z,100689.41
2022-08-26T07:03:59.136Z,100693.50
2022-08-26T07:06:28.087Z,100698.75
2022-08-26T07:09:01.661Z,100696.97
2022-08-26T07:11:30.836Z,100697.34
2022-08-26T07:13:58.913Z,100700.38
2022-08-26T07:16:28.325Z,100696.09
2022-08-26T07:18:56.836Z,100700.53
2022-08-26T07:21:24.971Z,100703.28
2022-08-26T07:23:54.620Z,100707.88
2022-08-26T07:26:26.941Z,100716.94
2022-08-26T07:28:56.773Z,100720.97
2022-08-26T07:31:26.595Z,100712.84
2022-08-26T07:33:53.535Z,100725.75
2022-08-26T07:36:22.003Z,100732.06
2022-08-26T07:38:49.171Z,100731.66
2022-08-26T07:41:18.591Z,100730.44
2022-08-26T07:43:45.989Z,100735.13
2022-08-26T07:46:18.424Z,100735.09
2022-08-26T07:48:48.972Z,100735.44
2022-08-26T07:51:18.022Z,100737.16
2022-08-26T07:53:48.061Z,100738.97
2022-08-26T07:56:19.113Z,100751.09
2022-08-26T07:58:48.983Z,100743.84
2022-08-26T08:01:18.118Z,100738.53
2022-08-26T08:03:45.394Z,100749.94
2022-08-26T08:06:11.938Z,100749.75
2022-08-26T08:08:40.726Z,100745.00
2022-08-26T08:11:07.486Z,100742.25
2022-08-26T08:13:37.836Z,100741.63
2022-08-26T08:16:05.573Z,100744.09
2022-08-26T08:18:32.087Z,100751.47
2022-08-26T08:21:21.397Z,100745.72
2022-08-26T08:23:48.242Z,100745.53
2022-08-26T08:26:15.364Z,100744.59
2022-08-26T08:28:43.687Z,100747.75
2022-08-26T08:31:55.963Z,100757.75
2022-08-26T08:34:15.145Z,100758.25
2022-08-26T08:36:41.829Z,100751.72
2022-08-26T08:39:09.277Z,100767.22
2022-08-26T08:42:17.641Z,100761.22
2022-08-26T08:44:52.097Z,100763.44
2022-08-26T08:47:36.412Z,100761.84
2022-08-26T08:50:33.998Z,100768.72
2022-08-26T08:53:09.081Z,100763.34
2022-08-26T08:55:58.610Z,100764.69
2022-08-26T08:58:39.519Z,100755.16
2022-08-26T09:01:12.049Z,100752.91
2022-08-26T09:03:55.605Z,100744.25
2022-08-26T09:06:24.097Z,100757.81
2022-08-26T09:08:56.341Z,100751.94
2022-08-26T09:11:23.104Z,100751.94
2022-08-26T09:13:54.202Z,100752.47
2022-08-26T09:16:46.668Z,100750.75
2022-08-26T09:19:41.392Z,100748.31
2022-08-26T09:22:09.535Z,100754.16
2022-08-26T09:24:41.754Z,100748.91
2022-08-26T09:27:50.510Z,100756.03
2022-08-26T09:30:33.143Z,100755.59
2022-08-26T09:33:06.709Z,100765.84
2022-08-26T09:35:40.394Z,100761.44
2022-08-26T09:38:28.154Z,100760.38
2022-08-26T09:41:06.908Z,100756.78
2022-08-26T09:43:35.343Z,100762.63
2022-08-26T09:46:22.570Z,100758.94
2022-08-26T09:48:51.633Z,100765.38
2022-08-26T09:51:31.224Z,100759.97
2022-08-26T09:54:03.096Z,100758.00
2022-08-26T09:56:38.316Z,100754.34
2022-08-26T09:59:11.123Z,100758.00
2022-08-26T10:01:42.682Z,100751.53
2022-08-26T10:04:14.047Z,100753.06
2022-08-26T10:06:54.490Z,100755.56
2022-08-26T10:09:23.806Z,100759.31
2022-08-26T10:11:54.049Z,100748.41
2022-08-26T10:14:37.118Z,100741.38
2022-08-26T10:17:11.080Z,100734.47
2022-08-26T10:19:57.057Z,100736.91
2022-08-26T10:22:24.071Z,100730.28
2022-08-26T10:24:55.947Z,100737.34
2022-08-26T10:27:40.487Z,100737.09
2022-08-26T10:30:21.517Z,100731.44
2022-08-26T10:33:18.559Z,100732.25
2022-08-26T10:35:58.664Z,100731.09
2022-08-26T10:38:39.225Z,100733.78
2022-08-26T10:41:16.933Z,100732.13
2022-08-26T10:43:59.045Z,100728.50
2022-08-26T10:46:34.498Z,100713.50
2022-08-26T10:49:08.499Z,100726.84
2022-08-26T10:51:42.188Z,100716.66
2022-08-26T10:54:16.942Z,100720.25
2022-08-26T10:56:44.018Z,100708.91
2022-08-26T10:59:16.502Z,100719.34
2022-08-26T11:01:43.430Z,100715.44
2022-08-26T11:04:34.881Z,100715.09
2022-08-26T11:07:39.161Z,100714.56
2022-08-26T11:10:20.866Z,100720.34
2022-08-26T11:12:55.778Z,100720.84
2022-08-26T11:15:29.449Z,100726.19
2022-08-26T11:18:01.865Z,100717.50
2022-08-26T11:20:42.382Z,100730.22
2022-08-26T11:23:23.983Z,100725.78
2022-08-26T11:25:56.896Z,100731.09
2022-08-26T11:28:48.102Z,100731.44
2022-08-26T11:31:26.986Z,100729.00
2022-08-26T11:34:40.869Z,100730.38
2022-08-26T11:37:17.820Z,100726.88
2022-08-26T11:39:57.010Z,100729.38
2022-08-26T11:42:46.458Z,100730.28
2022-08-26T11:45:28.468Z,100722.72
2022-08-26T11:47:57.223Z,100725.41
2022-08-26T11:50:29.525Z,100719.03
2022-08-26T11:53:06.362Z,100716.88
2022-08-26T11:55:42.959Z,100710.75
2022-08-26T11:58:13.381Z,100689.16
2022-08-26T12:00:52.499Z,100705.97
2022-08-26T12:03:25.046Z,100708.09
2022-08-26T12:05:53.473Z,100701.06
2022-08-26T12:08:24.743Z,100694.81
2022-08-26T12:11:23.158Z,100686.16
2022-08-26T12:14:00.093Z,100692.69
2022-08-26T12:16:39.199Z,100687.78
2022-08-26T12:19:21.604Z,100687.41
2022-08-26T12:21:58.775Z,100681.38
2022-08-26T12:24:26.286Z,100678.78
2022-08-26T12:27:11.658Z,100671.59
2022-08-26T12:29:39.581Z,100667.78
2022-08-26T12:32:13.322Z,100673.88
2022-08-26T12:34:46.694Z,100654.34
2022-08-26T12:37:15.118Z,100661.16
2022-08-26T12:39:44.479Z,100654.28
2022-08-26T12:42:15.764Z,100664.97
2022-08-26T12:44:58.453Z,100649.53
2022-08-26T12:47:42.613Z,100662.25
2022-08-26T12:50:18.841Z,100656.53
2022-08-26T12:53:08.678Z,100659.50
2022-08-26T12:55:44.177Z,100661.47
2022-08-26T12:58:39.141Z,100648.19
2022-08-26T13:01:08.674Z,100653.16
2022-08-26T13:03:37.140Z,100652.22
2022-08-26T13:06:22.288Z,100655.66
2022-08-26T13:08:54.755Z,100646.50
2022-08-26T13:11:44.853Z,100650.22
2022-08-26T13:14:18.338Z,100653.09
2022-08-26T13:16:52.795Z,100634.53
2022-08-26T13:19:21.092Z,100641.72
2022-08-26T13:21:53.182Z,100643.91
2022-08-26T13:24:27.067Z,100646.13
2022-08-26T13:26:54.066Z,100644.88
2022-08-26T13:29:20.873Z,100637.28
2022-08-26T13:31:48.832Z,100643.91
2022-08-26T13:34:19.247Z,100644.00
2022-08-26T13:36:50.391Z,100637.34
2022-08-26T13:39:17.870Z,100640.00
2022-08-26T13:41:44.724Z,100643.16
2022-08-26T13:44:11.969Z,100642.69
2022-08-26T13:46:39.025Z,100637.63
2022-08-26T13:49:06.467Z,100649.09
2022-08-26T13:51:33.686Z,100649.75
2022-08-26T13:54:01.951Z,100643.63
2022-08-26T13:56:29.923Z,100659.09
2022-08-26T13:58:57.734Z,100652.53
2022-08-26T14:01:25.752Z,100651.28
2022-08-26T14:03:59.117Z,100648.63
2022-08-26T14:06:26.243Z,100655.66
2022-08-26T14:08:53.330Z,100658.16
2022-08-26T14:11:23.047Z,100650.59
2022-08-26T14:13:50.368Z,100661.22
2022-08-26T14:16:29.125Z,100658.56
2022-08-26T14:19:00.249Z,100666.00
2022-08-26T14:21:33.336Z,100656.63
2022-08-26T14:24:03.765Z,100662.31
2022-08-26T14:26:30.319Z,100660.50
2022-08-26T14:29:01.340Z,100651.19
2022-08-26T14:31:31.284Z,100642.56
2022-08-26T14:34:02.475Z,100640.41
2022-08-26T14:36:29.180Z,100652.94
2022-08-26T14:38:58.171Z,100648.22
2022-08-26T14:41:25.385Z,100640.13
2022-08-26T14:44:13.648Z,100638.22
2022-08-26T14:46:45.890Z,100631.94
2022-08-26T14:49:13.190Z,100636.25
2022-08-26T14:51:41.034Z,100632.16
2022-08-26T14:54:11.809Z,100633.25
2022-08-26T14:57:01.019Z,100629.41
2022-08-26T14:59:30.550Z,100636.88
2022-08-26T15:01:57.770Z,100633.78
2022-08-26T15:04:25.305Z,100630.00
2022-08-26T15:06:54.133Z,100629.03
2022-08-26T15:09:21.528Z,100633.25
2022-08-26T15:11:48.450Z,100626.81
2022-08-26T15:14:19.629Z,100620.34
2022-08-26T15:16:52.453Z,100619.13
2022-08-26T15:19:20.648Z,100620.84
2022-08-26T15:21:47.822Z,100620.78
2022-08-26T15:24:16.960Z,100629.59
2022-08-26T15:26:43.808Z,100630.28
2022-08-26T15:29:10.615Z,100633.38
2022-08-26T15:31:37.228Z,100633.50
2022-08-26T15:34:08.535Z,100636.56
2022-08-26T15:36:37.723Z,100644.28
2022-08-26T15:39:07.211Z,100635.97
2022-08-26T15:41:34.944Z,100650.97
2022-08-26T15:44:02.226Z,100652.19
2022-08-26T15:46:30.377Z,100648.66
2022-08-26T15:48:56.950Z,100655.00
2022-08-26T15:51:26.881Z,100668.34
2022-08-26T15:53:56.258Z,100672.97
2022-08-26T15:56:29.667Z,100670.38
2022-08-26T15:58:56.564Z,100666.25
2022-08-26T16:01:27.734Z,100665.84
2022-08-26T16:03:55.908Z,100675.09
2022-08-26T16:06:27.366Z,100660.28
2022-08-26T16:08:56.095Z,100678.28
2022-08-26T16:11:23.542Z,100676.72
2022-08-26T16:13:50.623Z,100681.03
2022-08-26T16:16:18.081Z,100683.13
2022-08-26T16:18:45.243Z,100685.97
2022-08-26T16:21:16.362Z,100693.22
2022-08-26T16:23:44.982Z,100684.19
2022-08-26T16:26:19.305Z,100691.94
2022-08-26T16:28:47.357Z,100688.09
2022-08-26T16:31:15.455Z,100698.38
2022-08-26T16:33:42.289Z,100686.59
2022-08-26T16:36:09.833Z,100701.97
2022-08-26T16:38:38.128Z,100703.06
2022-08-26T16:41:05.969Z,100712.22
2022-08-26T16:43:33.249Z,100702.53
2022-08-26T16:46:00.129Z,100709.25
2022-08-26T16:48:27.837Z,100707.22
2022-08-26T16:50:55.622Z,100693.84
2022-08-26T16:53:22.770Z,100705.72
2022-08-26T16:55:50.699Z,100707.59
2022-08-26T16:58:17.478Z,100710.75
2022-08-26T17:00:45.169Z,100695.84
2022-08-26T17:03:12.400Z,100699.88
2022-08-26T17:05:40.329Z,100691.41
2022-08-26T17:08:07.407Z,100704.56
2022-08-26T17:10:34.548Z,100692.63
2022-08-26T17:13:01.371Z,100693.97
2022-08-26T17:15:28.383Z,100690.78
2022-08-26T17:17:56.121Z,100674.91
2022-08-26T17:20:24.435Z,100670.44
2022-08-26T17:22:52.808Z,100664.00
2022-08-26T17:25:21.785Z,100671.47
2022-08-26T17:27:48.535Z,100660.53
2022-08-26T17:30:16.860Z,100670.59
2022-08-26T17:32:43.601Z,100672.47
2022-08-26T17:35:12.911Z,100676.22
2022-08-26T17:37:40.285Z,100672.38
2022-08-26T17:40:09.989Z,100677.03
2022-08-26T17:42:37.631Z,100666.66
2022-08-26T17:45:04.537Z,100663.84
2022-08-26T17:47:31.026Z,100664.59
2022-08-26T17:49:57.601Z,100660.53
2022-08-26T17:52:24.355Z,100673.31
2022-08-26T17:54:56.338Z,100673.81
2022-08-26T17:57:24.502Z,100683.13
2022-08-26T17:59:51.006Z,100691.09
2022-08-26T18:02:19.416Z,100684.28
2022-08-26T18:04:45.928Z,100687.09
2022-08-26T18:07:12.544Z,100676.75
2022-08-26T18:09:39.278Z,100684.81
2022-08-26T18:12:06.153Z,100690.19
2022-08-26T18:14:33.793Z,100696.28
2022-08-26T18:17:00.620Z,100702.13
2022-08-26T18:19:27.817Z,100707.84
2022-08-26T18:21:54.454Z,100703.53
2022-08-26T18:24:21.336Z,100715.75
2022-08-26T18:26:51.144Z,100717.75
2022-08-26T18:29:20.000Z,100725.50
2022-08-26T18:31:47.096Z,100728.75
2022-08-26T18:34:15.583Z,100736.16
2022-08-26T18:36:43.775Z,100747.00
2022-08-26T18:39:12.228Z,100756.16
2022-08-26T18:41:45.545Z,100753.19
2022-08-26T18:44:14.230Z,100763.63
2022-08-26T18:46:41.335Z,100766.28
2022-08-26T18:49:08.517Z,100757.53
2022-08-26T18:51:35.207Z,100766.59
2022-08-26T18:54:04.589Z,100761.41
2022-08-26T18:56:32.044Z,100763.03
2022-08-26T18:59:01.617Z,100764.88
2022-08-26T19:01:30.260Z,100769.59
2022-08-26T19:03:59.004Z,100773.41
2022-08-26T19:06:26.860Z,100786.44
2022-08-26T19:08:53.784Z,100784.88
2022-08-26T19:11:31.809Z,100783.13
2022-08-26T19:14:00.605Z,100786.63
2022-08-26T19:16:27.525Z,100782.88
2022-08-26T19:18:56.061Z,100785.84
2022-08-26T19:21:23.576Z,100787.19
2022-08-26T19:23:51.120Z,100788.59
2022-08-26T19:26:19.369Z,100783.75
2022-08-26T19:28:46.064Z,100783.53
2022-08-26T19:31:12.871Z,100784.97
2022-08-26T19:33:42.949Z,100791.56
2022-08-26T19:36:15.237Z,100786.28
2022-08-26T19:38:42.863Z,100785.66
2022-08-26T19:41:14.941Z,100791.78
2022-08-26T19:43:41.890Z,100788.91
2022-08-26T19:46:13.617Z,100792.97
2022-08-26T19:48:43.916Z,100794.19
2022-08-26T19:51:26.510Z,100797.59
2022-08-26T19:53:54.735Z,100793.31
2022-08-26T19:56:22.167Z,100806.13
2022-08-26T19:58:49.390Z,100804.31
2022-08-26T20:01:16.705Z,100804.22
2022-08-26T20:03:43.965Z,100803.81
2022-08-26T20:06:12.839Z,100807.88
2022-08-26T20:08:40.983Z,100795.53
2022-08-26T20:11:12.279Z,100800.88
2022-08-26T20:13:40.582Z,100803.06
2022-08-26T20:16:07.389Z,100789.50
2022-08-26T20:18:52.803Z,100803.25
2022-08-26T20:21:29.221Z,100796.97
2022-08-26T20:24:07.153Z,100808.16
2022-08-26T20:26:36.177Z,100804.16
2022-08-26T20:29:04.220Z,100809.66
2022-08-26T20:31:31.233Z,100809.44
2022-08-26T20:33:58.403Z,100808.81
2022-08-26T20:36:27.443Z,100811.81
2022-08-26T20:38:55.195Z,100807.97
2022-08-26T20:41:24.037Z,100800.09
2022-08-26T20:43:50.683Z,100803.91
2022-08-26T20:46:21.029Z,100807.06
2022-08-26T20:48:49.585Z,100811.00
2022-08-26T20:51:17.894Z,100800.84
2022-08-26T20:53:44.932Z,100808.69
2022-08-26T20:56:13.568Z,100815.09
2022-08-26T20:58:40.880Z,100814.91
2022-08-26T21:01:08.989Z,100817.97
2022-08-26T21:03:36.865Z,100822.81
2022-08-26T21:06:03.877Z,100828.84
2022-08-26T21:08:33.384Z,100825.09
2022-08-26T21:11:00.941Z,100831.81
2022-08-26T21:13:35.766Z,100825.19
2022-08-26T21:16:10.172Z,100827.75
2022-08-26T21:18:36.935Z,100824.97
2022-08-26T21:21:07.955Z,100821.44
2022-08-26T21:23:35.832Z,100823.06
2022-08-26T21:26:07.482Z,100819.53
2022-08-26T21:28:39.527Z,100824.09
2022-08-26T21:31:08.055Z,100830.31
2022-08-26T21:33:36.075Z,100839.69
2022-08-26T21:36:03.571Z,100835.91
2022-08-26T21:38:33.254Z,100839.13
2022-08-26T21:41:03.443Z,100833.88
2022-08-26T21:43:35.220Z,100841.88
2022-08-26T21:46:11.428Z,100839.06
2022-08-26T21:48:50.521Z,100842.38
2022-08-26T21:51:20.579Z,100842.56
2022-08-26T21:53:47.932Z,100846.03
2022-08-26T21:56:17.024Z,100842.13
2022-08-26T21:58:44.165Z,100841.41
2022-08-26T22:01:13.992Z,100842.81
2022-08-26T22:03:46.887Z,100846.50
2022-08-26T22:06:14.185Z,100853.53
2022-08-26T22:08:40.663Z,100849.69
2022-08-26T22:11:07.299Z,100856.75
2022-08-26T22:13:36.923Z,100855.81
2022-08-26T22:16:04.621Z,100855.00
2022-08-26T22:18:31.784Z,100863.81
2022-08-26T22:21:02.100Z,100860.19
2022-08-26T22:23:28.897Z,100859.31
2022-08-26T22:25:55.944Z,100845.94
2022-08-26T22:28:22.832Z,100860.03
2022-08-26T22:30:49.801Z,100863.88
2022-08-26T22:33:16.574Z,100855.28
2022-08-26T22:35:46.440Z,100856.41
2022-08-26T22:38:13.440Z,100849.88
2022-08-26T22:40:45.466Z,100844.16
2022-08-26T22:43:12.906Z,100851.47
2022-08-26T22:45:45.742Z,100846.31
2022-08-26T22:48:15.511Z,100846.13
2022-08-26T22:50:43.113Z,100840.16
2022-08-26T22:53:10.055Z,100839.75
2022-08-26T22:55:36.858Z,100838.81
2022-08-26T22:58:04.676Z,100842.25
2022-08-26T23:00:32.526Z,100834.28
2022-08-26T23:02:59.329Z,100831.75
2022-08-26T23:05:25.929Z,100836.72
2022-08-26T23:07:52.487Z,100837.22
2022-08-26T23:10:19.101Z,100838.03
2022-08-26T23:12:45.605Z,100829.97
2022-08-26T23:15:12.329Z,100832.03
2022-08-26T23:17:39.640Z,100839.22
2022-08-26T23:20:10.338Z,100843.66
2022-08-26T23:22:37.646Z,100837.75
2022-08-26T23:25:07.718Z,100846.25
2022-08-26T23:27:36.481Z,100844.06
2022-08-26T23:30:07.336Z,100840.09
2022-08-26T23:32:33.847Z,100827.78
2022-08-26T23:35:00.398Z,100819.72
2022-08-26T23:37:39.206Z,100829.06
2022-08-26T23:40:23.088Z,100828.16
2022-08-26T23:42:51.032Z,100822.25
2022-08-26T23:45:18.525Z,100817.31
2022-08-26T23:47:46.178Z,100835.03
2022-08-26T23:50:14.057Z,100829.19
2022-08-26T23:52:58.912Z,100823.00
2022-08-26T23:55:25.809Z,100827.50
2022-08-26T23:57:52.574Z,100833.03
